Time,TemperatureF,DewpointF,PressureIn,WindDirection,WindDirectionDegrees,WindSpeedMPH,WindSpeedGustMPH,Humidity,HourlyPrecipIn,Conditions,Clouds,dailyrainin,SoftwareType,DateUTC
2013-04-21 00:02:00,54.8,43.7,30.01,SSE,155,11.0,16.0,66,0.00,,SKC,0.00,VWS V14.01,2013-04-21 05:02:00,
2013-04-21 00:07:00,54.5,43.8,30.00,SSE,149,13.0,21.0,67,0.00,,SKC,0.00,VWS V14.01,2013-04-21 05:07:00,
2013-04-21 00:12:00,54.3,44.0,30.01,South,169,16.0,18.0,68,0.00,,SKC,0.00,VWS V14.01,2013-04-21 05:12:00,
2013-04-21 00:17:00,54.1,44.2,30.01,SSE,155,12.0,17.0,69,0.00,,SKC,0.00,VWS V14.01,2013-04-21 05:17:00,
2013-04-21 00:22:00,53.9,44.0,30.01,SSE,164,17.0,17.0,69,0.00,,SKC,0.00,VWS V14.01,2013-04-21 05:22:00,
2013-04-21 00:27:00,53.7,44.2,30.02,SSE,153,4.0,7.0,70,0.00,,SKC,0.00,VWS V14.01,2013-04-21 05:27:00,
2013-04-21 00:32:00,53.3,43.8,30.02,South,171,9.0,10.0,70,0.00,,SKC,0.00,VWS V14.01,2013-04-21 05:32:00,
2013-04-21 00:37:00,53.3,44.2,30.01,SSE,157,11.0,17.0,71,0.00,,SKC,0.00,VWS V14.01,2013-04-21 05:37:00,
2013-04-21 00:42:00,53.1,44.3,30.02,South,175,6.0,12.0,72,0.00,,SKC,0.00,VWS V14.01,2013-04-21 05:42:00,
2013-04-21 00:47:00,52.9,44.1,30.02,South,169,5.0,12.0,72,0.00,,SKC,0.00,VWS V14.01,2013-04-21 05:47:00,
2013-04-21 00:52:00,52.7,43.9,30.02,East,91,13.0,13.0,72,0.00,,SKC,0.00,VWS V14.01,2013-04-21 05:52:00,
2013-04-21 00:57:00,52.5,44.1,30.02,South,169,16.0,17.0,73,0.00,,SKC,0.00,VWS V14.01,2013-04-21 05:57:00,
2013-04-21 01:02:00,52.4,44.4,30.02,SE,144,11.0,11.0,74,0.00,,SKC,0.00,VWS V14.01,2013-04-21 06:02:00,
2013-04-21 01:07:00,52.2,44.5,30.02,SE,141,10.0,11.0,75,0.00,,SKC,0.00,VWS V14.01,2013-04-21 06:07:00,
2013-04-21 01:12:00,52.0,44.3,30.02,SE,128,5.0,9.0,75,0.00,,SKC,0.00,VWS V14.01,2013-04-21 06:12:00,
2013-04-21 01:17:00,51.8,44.1,30.02,SSE,152,10.0,10.0,75,0.00,,SKC,0.00,VWS V14.01,2013-04-21 06:17:00,
2013-04-21 01:22:00,51.7,44.4,30.03,SE,145,4.0,12.0,76,0.00,,SKC,0.00,VWS V14.01,2013-04-21 06:22:00,
2013-04-21 01:27:00,51.6,44.3,30.03,South,175,7.0,9.0,76,0.00,,SKC,0.00,VWS V14.01,2013-04-21 06:27:00,
2013-04-21 01:32:00,51.5,44.5,30.03,South,180,11.0,13.0,77,0.00,,SKC,0.00,VWS V14.01,2013-04-21 06:32:00,
2013-04-21 01:37:00,51.4,44.4,30.03,SE,140,13.0,13.0,77,0.00,,SKC,0.00,VWS V14.01,2013-04-21 06:37:00,
2013-04-21 01:42:00,51.2,44.2,30.04,SE,133,10.0,11.0,77,0.00,,SKC,0.00,VWS V14.01,2013-04-21 06:42:00,
2013-04-21 01:47:00,51.3,44.7,30.03,SSE,156,14.0,14.0,78,0.00,,SKC,0.00,VWS V14.01,2013-04-21 06:47:00,
2013-04-21 01:52:00,51.4,44.8,30.03,SE,130,8.0,10.0,78,0.00,,SKC,0.00,VWS V14.01,2013-04-21 06:52:00,
2013-04-21 01:57:00,51.4,44.8,30.03,SSE,155,6.0,12.0,78,0.00,,SKC,0.00,VWS V14.01,2013-04-21 06:57:00,
2013-04-21 02:02:00,51.4,44.8,30.03,SSE,152,4.0,5.0,78,0.00,,SKC,0.00,VWS V14.01,2013-04-21 07:02:00,
2013-04-21 02:07:00,51.4,45.1,30.04,SSE,149,5.0,13.0,79,0.00,,SKC,0.00,VWS V14.01,2013-04-21 07:07:00,
2013-04-21 02:12:00,51.4,45.1,30.04,SSE,150,7.0,10.0,79,0.00,,SKC,0.00,VWS V14.01,2013-04-21 07:12:00,
2013-04-21 02:17:00,51.4,45.1,30.04,SSE,153,5.0,10.0,79,0.00,,SKC,0.00,VWS V14.01,2013-04-21 07:17:00,
2013-04-21 02:22:00,51.4,45.1,30.05,SSE,160,5.0,9.0,79,0.00,,SKC,0.00,VWS V14.01,2013-04-21 07:22:00,
2013-04-21 02:27:00,51.4,45.1,30.04,SE,142,10.0,12.0,79,0.00,,SKC,0.00,VWS V14.01,2013-04-21 07:27:00,
2013-04-21 02:32:00,51.3,45.0,30.04,SSE,161,3.0,12.0,79,0.00,,SKC,0.00,VWS V14.01,2013-04-21 07:32:00,
2013-04-21 02:37:00,51.4,45.5,30.04,SSE,152,10.0,11.0,80,0.00,,SKC,0.00,VWS V14.01,2013-04-21 07:37:00,
2013-04-21 02:42:00,51.3,45.3,30.04,SSE,151,7.0,10.0,80,0.00,,SKC,0.00,VWS V14.01,2013-04-21 07:42:00,
2013-04-21 02:47:00,51.4,45.5,30.04,SSE,148,12.0,15.0,80,0.00,,SKC,0.00,VWS V14.01,2013-04-21 07:47:00,
2013-04-21 02:52:00,51.4,45.5,30.03,South,183,12.0,12.0,80,0.00,,SKC,0.00,VWS V14.01,2013-04-21 07:52:00,
2013-04-21 02:57:00,51.3,45.3,30.04,SE,135,10.0,10.0,80,0.00,,SKC,0.00,VWS V14.01,2013-04-21 07:57:00,
2013-04-21 03:02:00,51.3,45.7,30.03,SSE,153,5.0,9.0,81,0.00,,SKC,0.00,VWS V14.01,2013-04-21 08:02:00,
2013-04-21 03:07:00,51.3,45.7,30.03,South,169,8.0,14.0,81,0.00,,SKC,0.00,VWS V14.01,2013-04-21 08:07:00,
2013-04-21 03:12:00,51.2,45.6,30.03,South,183,12.0,12.0,81,0.00,,SKC,0.00,VWS V14.01,2013-04-21 08:12:00,
2013-04-21 03:17:00,51.2,45.6,30.03,SSE,150,5.0,12.0,81,0.00,,SKC,0.00,VWS V14.01,2013-04-21 08:17:00,
2013-04-21 03:22:00,51.1,45.5,30.02,SSE,155,13.0,15.0,81,0.00,,SKC,0.00,VWS V14.01,2013-04-21 08:22:00,
2013-04-21 03:27:00,51.0,45.4,30.01,South,169,11.0,12.0,81,0.00,,SKC,0.00,VWS V14.01,2013-04-21 08:27:00,
2013-04-21 03:32:00,51.0,45.7,30.01,ESE,119,14.0,14.0,82,0.00,,SKC,0.00,VWS V14.01,2013-04-21 08:32:00,
2013-04-21 03:37:00,51.0,45.7,30.02,SSE,150,9.0,14.0,82,0.00,,SKC,0.00,VWS V14.01,2013-04-21 08:37:00,
2013-04-21 03:42:00,51.0,45.7,30.02,SSE,155,5.0,12.0,82,0.00,,SKC,0.00,VWS V14.01,2013-04-21 08:42:00,
2013-04-21 03:47:00,51.0,45.7,30.02,South,174,5.0,9.0,82,0.00,,SKC,0.00,VWS V14.01,2013-04-21 08:47:00,
2013-04-21 03:52:00,50.9,45.6,30.02,SSE,160,5.0,12.0,82,0.00,,SKC,0.00,VWS V14.01,2013-04-21 08:52:00,
2013-04-21 03:57:00,50.9,45.6,30.02,SSE,158,6.0,13.0,82,0.00,,SKC,0.00,VWS V14.01,2013-04-21 08:57:00,
2013-04-21 04:02:00,50.9,45.6,30.02,SSE,161,11.0,14.0,82,0.00,,SKC,0.00,VWS V14.01,2013-04-21 09:02:00,
2013-04-21 04:07:00,50.8,45.5,30.02,SE,137,6.0,9.0,82,0.00,,SKC,0.00,VWS V14.01,2013-04-21 09:07:00,
2013-04-21 04:12:00,50.8,45.5,30.02,SSE,159,4.0,10.0,82,0.00,,SKC,0.00,VWS V14.01,2013-04-21 09:12:00,
2013-04-21 04:17:00,50.8,45.5,30.03,SE,133,10.0,14.0,82,0.00,,SKC,0.00,VWS V14.01,2013-04-21 09:17:00,
2013-04-21 04:22:00,50.8,45.5,30.03,SSE,157,4.0,9.0,82,0.00,,SKC,0.00,VWS V14.01,2013-04-21 09:22:00,
2013-04-21 04:27:00,50.7,45.4,30.03,SSE,153,9.0,9.0,82,0.00,,SKC,0.00,VWS V14.01,2013-04-21 09:27:00,
2013-04-21 04:32:00,50.7,45.4,30.03,SSE,163,6.0,7.0,82,0.00,,SKC,0.00,VWS V14.01,2013-04-21 09:32:00,
2013-04-21 04:37:00,50.6,45.3,30.03,SSE,147,4.0,7.0,82,0.00,,SKC,0.00,VWS V14.01,2013-04-21 09:37:00,
2013-04-21 04:42:00,50.6,45.3,30.02,South,184,7.0,9.0,82,0.00,,SKC,0.00,VWS V14.01,2013-04-21 09:42:00,
2013-04-21 04:47:00,50.6,45.3,30.02,South,180,12.0,12.0,82,0.00,,SKC,0.00,VWS V14.01,2013-04-21 09:47:00,
2013-04-21 04:52:00,50.5,45.2,30.02,SSE,165,4.0,7.0,82,0.00,,SKC,0.00,VWS V14.01,2013-04-21 09:52:00,
2013-04-21 04:57:00,50.6,45.3,30.02,SSE,147,6.0,12.0,82,0.00,,SKC,0.00,VWS V14.01,2013-04-21 09:57:00,
2013-04-21 05:02:00,50.6,45.6,30.02,SSE,155,4.0,6.0,83,0.00,,SKC,0.00,VWS V14.01,2013-04-21 10:02:00,
2013-04-21 05:07:00,50.6,45.6,30.02,SE,140,7.0,9.0,83,0.00,,SKC,0.00,VWS V14.01,2013-04-21 10:07:00,
2013-04-21 05:12:00,50.6,45.6,30.02,SSE,153,5.0,7.0,83,0.00,,SKC,0.00,VWS V14.01,2013-04-21 10:12:00,
2013-04-21 05:17:00,50.6,45.6,30.02,South,172,11.0,17.0,83,0.00,,SKC,0.00,VWS V14.01,2013-04-21 10:17:00,
2013-04-21 05:22:00,50.6,45.6,30.02,SE,140,9.0,11.0,83,0.00,,SKC,0.00,VWS V14.01,2013-04-21 10:22:00,
2013-04-21 05:27:00,50.6,45.6,30.02,South,180,7.0,12.0,83,0.00,,SKC,0.00,VWS V14.01,2013-04-21 10:27:00,
2013-04-21 05:32:00,50.6,45.6,30.02,SE,141,6.0,16.0,83,0.00,,SKC,0.00,VWS V14.01,2013-04-21 10:32:00,
2013-04-21 05:37:00,50.6,45.6,30.02,SSE,151,2.0,8.0,83,0.00,,SKC,0.00,VWS V14.01,2013-04-21 10:37:00,
2013-04-21 05:42:00,50.6,45.6,30.02,SSE,165,6.0,6.0,83,0.00,,SKC,0.00,VWS V14.01,2013-04-21 10:42:00,
2013-04-21 05:47:00,50.6,45.6,30.02,SSW,195,6.0,10.0,83,0.00,,SKC,0.00,VWS V14.01,2013-04-21 10:47:00,
2013-04-21 05:52:00,50.6,45.6,30.02,South,171,6.0,7.0,83,0.00,,SKC,0.00,VWS V14.01,2013-04-21 10:52:00,
2013-04-21 05:57:00,50.6,45.6,30.02,SSE,160,4.0,10.0,83,0.00,,SKC,0.00,VWS V14.01,2013-04-21 10:57:00,
2013-04-21 06:02:00,50.6,45.6,30.02,SSE,163,8.0,10.0,83,0.00,,SKC,0.00,VWS V14.01,2013-04-21 11:02:00,
2013-04-21 06:07:00,50.6,45.6,30.02,SSE,158,6.0,7.0,83,0.00,,SKC,0.00,VWS V14.01,2013-04-21 11:07:00,
2013-04-21 06:12:00,50.5,45.5,30.02,South,169,5.0,12.0,83,0.00,,SKC,0.00,VWS V14.01,2013-04-21 11:12:00,
2013-04-21 06:17:00,50.5,45.5,30.02,South,172,5.0,11.0,83,0.00,,SKC,0.00,VWS V14.01,2013-04-21 11:17:00,
2013-04-21 06:22:00,50.5,45.5,30.02,South,171,5.0,8.0,83,0.00,,SKC,0.00,VWS V14.01,2013-04-21 11:22:00,
2013-04-21 06:27:00,50.5,45.5,30.03,South,174,3.0,12.0,83,0.00,,SKC,0.00,VWS V14.01,2013-04-21 11:27:00,
2013-04-21 06:32:00,50.5,45.8,30.03,SSE,147,4.0,6.0,84,0.00,,SKC,0.00,VWS V14.01,2013-04-21 11:32:00,
2013-04-21 06:37:00,50.5,45.8,30.03,South,178,6.0,9.0,84,0.00,,SKC,0.00,VWS V14.01,2013-04-21 11:37:00,
2013-04-21 06:42:00,50.6,46.0,30.03,SSE,150,4.0,10.0,84,0.00,,SKC,0.00,VWS V14.01,2013-04-21 11:42:00,
2013-04-21 06:47:00,50.6,46.0,30.03,SE,142,10.0,12.0,84,0.00,,SKC,0.00,VWS V14.01,2013-04-21 11:47:00,
2013-04-21 06:52:00,50.6,46.0,30.03,South,183,8.0,14.0,84,0.00,,SKC,0.00,VWS V14.01,2013-04-21 11:52:00,
2013-04-21 06:57:00,50.7,46.0,30.03,South,179,6.0,6.0,84,0.00,,SKC,0.00,VWS V14.01,2013-04-21 11:57:00,
2013-04-21 07:02:00,50.7,46.4,30.03,SSE,161,7.0,13.0,85,0.00,,SKC,0.00,VWS V14.01,2013-04-21 12:02:00,
2013-04-21 07:07:00,50.7,46.4,30.03,SSE,159,8.0,12.0,85,0.00,,SKC,0.00,VWS V14.01,2013-04-21 12:07:00,
2013-04-21 07:12:00,50.7,46.4,30.03,SE,146,4.0,9.0,85,0.00,,SKC,0.00,VWS V14.01,2013-04-21 12:12:00,
2013-04-21 07:17:00,50.7,46.4,30.03,SE,129,7.0,7.0,85,0.00,,SKC,0.00,VWS V14.01,2013-04-21 12:17:00,
2013-04-21 07:22:00,50.7,46.4,30.03,South,175,7.0,11.0,85,0.00,,SKC,0.00,VWS V14.01,2013-04-21 12:22:00,
2013-04-21 07:27:00,50.8,46.8,30.03,SE,145,7.0,12.0,86,0.00,,SKC,0.00,VWS V14.01,2013-04-21 12:27:00,
2013-04-21 07:32:00,50.8,46.8,30.03,SE,146,5.0,6.0,86,0.00,,SKC,0.00,VWS V14.01,2013-04-21 12:32:00,
2013-04-21 07:37:00,50.8,46.8,30.03,SSE,159,8.0,10.0,86,0.00,,SKC,0.00,VWS V14.01,2013-04-21 12:37:00,
2013-04-21 07:42:00,51.0,47.0,30.04,SSE,163,7.0,12.0,86,0.00,,SKC,0.00,VWS V14.01,2013-04-21 12:42:00,
2013-04-21 07:47:00,51.2,47.2,30.04,SSE,150,4.0,13.0,86,0.00,,SKC,0.00,VWS V14.01,2013-04-21 12:47:00,
2013-04-21 07:52:00,51.3,47.3,30.04,South,176,11.0,14.0,86,0.00,,SKC,0.00,VWS V14.01,2013-04-21 12:52:00,
2013-04-21 07:57:00,51.4,47.4,30.04,SSE,150,6.0,14.0,86,0.00,,SKC,0.00,VWS V14.01,2013-04-21 12:57:00,
2013-04-21 08:02:00,51.5,47.5,30.04,South,178,5.0,12.0,86,0.00,,SKC,0.00,VWS V14.01,2013-04-21 13:02:00,
2013-04-21 08:07:00,51.7,47.7,30.05,SSE,162,8.0,11.0,86,0.00,,SKC,0.00,VWS V14.01,2013-04-21 13:07:00,
2013-04-21 08:12:00,51.8,47.8,30.05,SSW,194,12.0,13.0,86,0.00,,SKC,0.00,VWS V14.01,2013-04-21 13:12:00,
2013-04-21 08:17:00,51.9,47.8,30.05,SSE,159,5.0,10.0,86,0.00,,SKC,0.00,VWS V14.01,2013-04-21 13:17:00,
2013-04-21 08:22:00,52.0,48.0,30.05,South,186,10.0,19.0,86,0.00,,SKC,0.00,VWS V14.01,2013-04-21 13:22:00,
2013-04-21 08:27:00,52.1,48.0,30.06,SSE,160,12.0,14.0,86,0.00,,SKC,0.00,VWS V14.01,2013-04-21 13:27:00,
2013-04-21 08:32:00,52.3,48.2,30.06,SSE,167,6.0,7.0,86,0.00,,SKC,0.00,VWS V14.01,2013-04-21 13:32:00,
2013-04-21 08:37:00,52.4,48.3,30.07,South,181,6.0,10.0,86,0.00,,SKC,0.00,VWS V14.01,2013-04-21 13:37:00,
2013-04-21 08:42:00,52.7,48.3,30.07,SE,144,6.0,9.0,85,0.00,,SKC,0.00,VWS V14.01,2013-04-21 13:42:00,
2013-04-21 08:47:00,52.8,48.4,30.07,SE,142,4.0,9.0,85,0.00,,SKC,0.00,VWS V14.01,2013-04-21 13:47:00,
2013-04-21 08:52:00,53.1,48.7,30.07,SSW,196,10.0,13.0,85,0.00,,SKC,0.00,VWS V14.01,2013-04-21 13:52:00,
2013-04-21 08:57:00,53.3,48.9,30.07,South,173,8.0,11.0,85,0.00,,SKC,0.00,VWS V14.01,2013-04-21 13:57:00,
2013-04-21 09:02:00,53.4,49.0,30.07,SSE,164,6.0,15.0,85,0.00,,SKC,0.00,VWS V14.01,2013-04-21 14:02:00,
2013-04-21 09:07:00,53.5,48.8,30.07,South,191,7.0,9.0,84,0.00,,SKC,0.00,VWS V14.01,2013-04-21 14:07:00,
2013-04-21 09:12:00,53.8,49.1,30.08,South,187,7.0,10.0,84,0.00,,SKC,0.00,VWS V14.01,2013-04-21 14:12:00,
2013-04-21 09:17:00,54.0,49.3,30.08,SSE,157,14.0,15.0,84,0.00,,SKC,0.00,VWS V14.01,2013-04-21 14:17:00,
2013-04-21 09:22:00,54.2,49.5,30.08,SSE,158,11.0,14.0,84,0.00,,SKC,0.00,VWS V14.01,2013-04-21 14:22:00,
2013-04-21 09:27:00,54.3,49.3,30.08,SSE,154,9.0,13.0,83,0.00,,SKC,0.00,VWS V14.01,2013-04-21 14:27:00,
2013-04-21 09:32:00,54.7,49.7,30.08,South,183,7.0,15.0,83,0.00,,SKC,0.00,VWS V14.01,2013-04-21 14:32:00,
2013-04-21 09:37:00,54.9,49.5,30.08,SSE,162,11.0,13.0,82,0.00,,SKC,0.00,VWS V14.01,2013-04-21 14:37:00,
2013-04-21 09:42:00,55.1,49.7,30.08,South,179,5.0,9.0,82,0.00,,SKC,0.00,VWS V14.01,2013-04-21 14:42:00,
2013-04-21 09:47:00,55.9,50.2,30.08,SSE,157,17.0,17.0,81,0.00,,SKC,0.00,VWS V14.01,2013-04-21 14:47:00,
2013-04-21 09:52:00,56.3,50.2,30.08,South,169,6.0,14.0,80,0.00,,SKC,0.00,VWS V14.01,2013-04-21 14:52:00,
2013-04-21 09:57:00,56.4,50.3,30.09,SSW,202,6.0,10.0,80,0.00,,SKC,0.00,VWS V14.01,2013-04-21 14:57:00,
2013-04-21 10:02:00,56.6,50.2,30.09,South,184,5.0,13.0,79,0.00,,SKC,0.00,VWS V14.01,2013-04-21 15:02:00,
2013-04-21 10:07:00,56.6,50.2,30.09,SSW,200,13.0,13.0,79,0.00,,SKC,0.00,VWS V14.01,2013-04-21 15:07:00,
2013-04-21 10:12:00,56.8,50.4,30.08,SSE,159,10.0,15.0,79,0.00,,SKC,0.00,VWS V14.01,2013-04-21 15:12:00,
2013-04-21 10:17:00,56.5,49.7,30.09,SSE,150,6.0,15.0,78,0.00,,SKC,0.00,VWS V14.01,2013-04-21 15:17:00,
2013-04-21 10:22:00,56.4,49.6,30.09,SSE,158,5.0,10.0,78,0.00,,SKC,0.00,VWS V14.01,2013-04-21 15:22:00,
2013-04-21 10:27:00,56.8,50.4,30.09,South,183,3.0,7.0,79,0.00,,SKC,0.00,VWS V14.01,2013-04-21 15:27:00,
2013-04-21 10:32:00,57.2,50.1,30.10,SE,146,4.0,10.0,77,0.00,,SKC,0.00,VWS V14.01,2013-04-21 15:32:00,
2013-04-21 10:37:00,57.0,49.9,30.10,South,187,6.0,11.0,77,0.00,,SKC,0.00,VWS V14.01,2013-04-21 15:37:00,
2013-04-21 10:42:00,57.2,50.1,30.10,SSE,159,4.0,12.0,77,0.00,,SKC,0.00,VWS V14.01,2013-04-21 15:42:00,
2013-04-21 10:47:00,57.4,49.9,30.11,SSE,166,5.0,6.0,76,0.00,,SKC,0.00,VWS V14.01,2013-04-21 15:47:00,
2013-04-21 10:52:00,57.6,50.1,30.11,South,179,3.0,6.0,76,0.00,,SKC,0.00,VWS V14.01,2013-04-21 15:52:00,
2013-04-21 10:57:00,57.9,50.4,30.11,SSE,149,5.0,11.0,76,0.00,,SKC,0.00,VWS V14.01,2013-04-21 15:57:00,
2013-04-21 11:02:00,58.1,50.2,30.10,South,173,7.0,12.0,75,0.00,,SKC,0.00,VWS V14.01,2013-04-21 16:02:00,
2013-04-21 11:07:00,59.0,50.4,30.10,SSE,154,10.0,11.0,73,0.00,,SKC,0.00,VWS V14.01,2013-04-21 16:07:00,
2013-04-21 11:12:00,59.3,50.3,30.10,South,171,6.0,11.0,72,0.00,,SKC,0.00,VWS V14.01,2013-04-21 16:12:00,
2013-04-21 11:17:00,59.3,50.3,30.10,SSE,162,2.0,10.0,72,0.00,,SKC,0.00,VWS V14.01,2013-04-21 16:17:00,
2013-04-21 11:22:00,59.6,50.6,30.10,South,182,5.0,10.0,72,0.00,,SKC,0.00,VWS V14.01,2013-04-21 16:22:00,
2013-04-21 11:27:00,60.1,50.7,30.10,South,188,11.0,14.0,71,0.00,,SKC,0.00,VWS V14.01,2013-04-21 16:27:00,
2013-04-21 11:32:00,60.6,51.2,30.10,SSE,149,2.0,7.0,71,0.00,,SKC,0.00,VWS V14.01,2013-04-21 16:32:00,
2013-04-21 11:37:00,61.8,51.9,30.10,SSE,167,11.0,11.0,70,0.00,,SKC,0.00,VWS V14.01,2013-04-21 16:37:00,
2013-04-21 11:42:00,62.5,51.8,30.10,South,181,5.0,13.0,68,0.00,,SKC,0.00,VWS V14.01,2013-04-21 16:42:00,
2013-04-21 11:47:00,61.6,50.1,30.10,SSE,157,6.0,12.0,66,0.00,,SKC,0.00,VWS V14.01,2013-04-21 16:47:00,
2013-04-21 11:52:00,61.8,50.3,30.09,South,180,11.0,12.0,66,0.00,,SKC,0.00,VWS V14.01,2013-04-21 16:52:00,
2013-04-21 11:57:00,62.1,51.0,30.09,SSW,198,9.0,11.0,67,0.00,,SKC,0.00,VWS V14.01,2013-04-21 16:57:00,
2013-04-21 12:02:00,62.6,51.1,30.09,SSW,196,7.0,10.0,66,0.00,,SKC,0.00,VWS V14.01,2013-04-21 17:02:00,
2013-04-21 12:07:00,62.6,50.7,30.09,SSE,165,10.0,10.0,65,0.00,,SKC,0.00,VWS V14.01,2013-04-21 17:07:00,
2013-04-21 12:12:00,63.0,50.2,30.09,South,188,3.0,9.0,63,0.00,,SKC,0.00,VWS V14.01,2013-04-21 17:12:00,
2013-04-21 12:17:00,63.1,49.9,30.08,SSW,198,12.0,14.0,62,0.00,,SKC,0.00,VWS V14.01,2013-04-21 17:17:00,
2013-04-21 12:22:00,63.3,50.5,30.08,SSW,192,6.0,8.0,63,0.00,,SKC,0.00,VWS V14.01,2013-04-21 17:22:00,
2013-04-21 12:27:00,64.8,51.0,30.07,SE,141,13.0,13.0,61,0.00,,SKC,0.00,VWS V14.01,2013-04-21 17:27:00,
2013-04-21 12:32:00,65.4,52.1,30.07,SSW,207,13.0,14.0,62,0.00,,SKC,0.00,VWS V14.01,2013-04-21 17:32:00,
2013-04-21 12:37:00,65.1,50.4,30.07,SSW,194,5.0,6.0,59,0.00,,SKC,0.00,VWS V14.01,2013-04-21 17:37:00,
2013-04-21 12:42:00,65.4,51.2,30.07,SSW,196,9.0,12.0,60,0.00,,SKC,0.00,VWS V14.01,2013-04-21 17:42:00,
2013-04-21 12:47:00,66.3,51.1,30.07,SSW,196,12.0,14.0,58,0.00,,SKC,0.00,VWS V14.01,2013-04-21 17:47:00,
2013-04-21 12:52:00,66.3,51.1,30.07,South,187,2.0,15.0,58,0.00,,SKC,0.00,VWS V14.01,2013-04-21 17:52:00,
2013-04-21 12:57:00,65.8,51.5,30.07,SSW,194,14.0,14.0,60,0.00,,SKC,0.00,VWS V14.01,2013-04-21 17:57:00,
2013-04-21 13:02:00,66.3,51.1,30.07,SSW,202,5.0,12.0,58,0.00,,SKC,0.00,VWS V14.01,2013-04-21 18:02:00,
2013-04-21 13:07:00,66.1,51.4,30.07,SSW,211,8.0,13.0,59,0.00,,SKC,0.00,VWS V14.01,2013-04-21 18:07:00,
2013-04-21 13:12:00,66.6,51.4,30.06,South,180,10.0,16.0,58,0.00,,SKC,0.00,VWS V14.01,2013-04-21 18:12:00,
2013-04-21 13:17:00,66.7,51.9,30.06,SSW,209,6.0,17.0,59,0.00,,SKC,0.00,VWS V14.01,2013-04-21 18:17:00,
2013-04-21 13:22:00,67.8,52.0,30.06,SSW,201,6.0,11.0,57,0.00,,SKC,0.00,VWS V14.01,2013-04-21 18:22:00,
2013-04-21 13:27:00,68.8,51.5,30.06,SE,141,6.0,9.0,54,0.00,,SKC,0.00,VWS V14.01,2013-04-21 18:27:00,
2013-04-21 13:32:00,68.2,51.9,30.06,SSW,201,6.0,6.0,56,0.00,,SKC,0.00,VWS V14.01,2013-04-21 18:32:00,
2013-04-21 13:37:00,67.9,51.6,30.06,South,180,5.0,9.0,56,0.00,,SKC,0.00,VWS V14.01,2013-04-21 18:37:00,
2013-04-21 13:42:00,67.1,50.9,30.05,SSE,156,10.0,16.0,56,0.00,,SKC,0.00,VWS V14.01,2013-04-21 18:42:00,
2013-04-21 13:47:00,67.4,51.7,30.05,SSW,195,6.0,11.0,57,0.00,,SKC,0.00,VWS V14.01,2013-04-21 18:47:00,
2013-04-21 13:52:00,68.0,52.2,30.05,South,179,9.0,14.0,57,0.00,,SKC,0.00,VWS V14.01,2013-04-21 18:52:00,
2013-04-21 13:57:00,68.2,52.9,30.05,SSW,207,12.0,13.0,58,0.00,,SKC,0.00,VWS V14.01,2013-04-21 18:57:00,
2013-04-21 14:02:00,68.0,51.7,30.05,SSW,196,12.0,14.0,56,0.00,,SKC,0.00,VWS V14.01,2013-04-21 19:02:00,
2013-04-21 14:07:00,67.8,52.0,30.04,SSW,196,7.0,8.0,57,0.00,,SKC,0.00,VWS V14.01,2013-04-21 19:07:00,
2013-04-21 14:12:00,68.4,53.1,30.04,South,189,5.0,7.0,58,0.00,,SKC,0.00,VWS V14.01,2013-04-21 19:12:00,
2013-04-21 14:17:00,69.1,53.2,30.04,SSE,152,15.0,15.0,57,0.00,,SKC,0.00,VWS V14.01,2013-04-21 19:17:00,
2013-04-21 14:22:00,68.9,52.6,30.04,SE,135,1.0,10.0,56,0.00,,SKC,0.00,VWS V14.01,2013-04-21 19:22:00,
2013-04-21 14:27:00,69.6,53.2,30.03,South,176,9.0,15.0,56,0.00,,SKC,0.00,VWS V14.01,2013-04-21 19:27:00,
2013-04-21 14:32:00,70.1,53.2,30.03,SSW,204,14.0,16.0,55,0.00,,SKC,0.00,VWS V14.01,2013-04-21 19:32:00,
2013-04-21 14:37:00,69.5,52.6,30.03,SW,218,5.0,5.0,55,0.00,,SKC,0.00,VWS V14.01,2013-04-21 19:37:00,
2013-04-21 14:42:00,69.7,53.3,30.03,SSE,166,9.0,11.0,56,0.00,,SKC,0.00,VWS V14.01,2013-04-21 19:42:00,
2013-04-21 14:47:00,69.9,53.0,30.03,South,171,5.0,12.0,55,0.00,,SKC,0.00,VWS V14.01,2013-04-21 19:47:00,
2013-04-21 14:52:00,69.6,53.2,30.02,South,169,3.0,4.0,56,0.00,,SKC,0.00,VWS V14.01,2013-04-21 19:52:00,
2013-04-21 14:57:00,70.1,52.7,30.02,SE,132,7.0,17.0,54,0.00,,SKC,0.00,VWS V14.01,2013-04-21 19:57:00,
2013-04-21 15:02:00,70.6,53.7,30.02,SSE,166,10.0,14.0,55,0.00,,SKC,0.00,VWS V14.01,2013-04-21 20:02:00,
2013-04-21 15:07:00,70.2,53.3,30.02,South,180,12.0,14.0,55,0.00,,SKC,0.00,VWS V14.01,2013-04-21 20:07:00,
2013-04-21 15:12:00,70.8,53.8,30.02,South,184,7.0,7.0,55,0.00,,SKC,0.00,VWS V14.01,2013-04-21 20:12:00,
2013-04-21 15:17:00,71.1,54.1,30.01,South,175,6.0,9.0,55,0.00,,SKC,0.00,VWS V14.01,2013-04-21 20:17:00,
2013-04-21 15:22:00,71.4,53.4,30.01,SSW,209,6.0,16.0,53,0.00,,SKC,0.00,VWS V14.01,2013-04-21 20:22:00,
2013-04-21 15:27:00,71.7,54.2,30.01,SSW,210,12.0,15.0,54,0.00,,SKC,0.00,VWS V14.01,2013-04-21 20:27:00,
2013-04-21 15:32:00,71.3,53.3,30.01,SSW,200,6.0,11.0,53,0.00,,SKC,0.00,VWS V14.01,2013-04-21 20:32:00,
2013-04-21 15:37:00,71.0,53.0,30.00,ESE,110,2.0,7.0,53,0.00,,SKC,0.00,VWS V14.01,2013-04-21 20:37:00,
2013-04-21 15:42:00,71.7,53.7,30.00,SSW,203,8.0,11.0,53,0.00,,SKC,0.00,VWS V14.01,2013-04-21 20:42:00,
2013-04-21 15:47:00,71.9,53.3,30.00,South,179,6.0,13.0,52,0.00,,SKC,0.00,VWS V14.01,2013-04-21 20:47:00,
2013-04-21 15:52:00,71.9,53.3,29.99,SE,146,5.0,10.0,52,0.00,,SKC,0.00,VWS V14.01,2013-04-21 20:52:00,
2013-04-21 15:57:00,72.2,53.1,29.99,South,182,11.0,13.0,51,0.00,,SKC,0.00,VWS V14.01,2013-04-21 20:57:00,
2013-04-21 16:02:00,72.2,52.5,29.99,South,187,4.0,11.0,50,0.00,,SKC,0.00,VWS V14.01,2013-04-21 21:02:00,
2013-04-21 16:07:00,72.0,53.4,29.99,SSW,199,3.0,9.0,52,0.00,,SKC,0.00,VWS V14.01,2013-04-21 21:07:00,
2013-04-21 16:12:00,72.6,53.5,29.99,South,190,2.0,7.0,51,0.00,,SKC,0.00,VWS V14.01,2013-04-21 21:12:00,
2013-04-21 16:17:00,73.2,54.0,29.98,SSE,153,7.0,13.0,51,0.00,,SKC,0.00,VWS V14.01,2013-04-21 21:17:00,
2013-04-21 16:22:00,73.5,53.2,29.98,SSW,207,10.0,15.0,49,0.00,,SKC,0.00,VWS V14.01,2013-04-21 21:22:00,
2013-04-21 16:27:00,72.9,53.2,29.98,SSW,206,7.0,7.0,50,0.00,,SKC,0.00,VWS V14.01,2013-04-21 21:27:00,
2013-04-21 16:32:00,73.1,53.9,29.98,SSE,155,5.0,13.0,51,0.00,,SKC,0.00,VWS V14.01,2013-04-21 21:32:00,
2013-04-21 16:37:00,73.4,53.7,29.98,SSW,196,14.0,15.0,50,0.00,,SKC,0.00,VWS V14.01,2013-04-21 21:37:00,
2013-04-21 16:42:00,73.1,52.8,29.98,SSE,165,7.0,13.0,49,0.00,,SKC,0.00,VWS V14.01,2013-04-21 21:42:00,
2013-04-21 16:47:00,73.1,53.4,29.98,South,190,7.0,7.0,50,0.00,,SKC,0.00,VWS V14.01,2013-04-21 21:47:00,
2013-04-21 16:52:00,73.1,52.8,29.98,South,190,10.0,10.0,49,0.00,,SKC,0.00,VWS V14.01,2013-04-21 21:52:00,
2013-04-21 16:58:00,73.0,53.3,29.97,SE,145,4.0,7.0,50,0.00,,SKC,0.00,VWS V14.01,2013-04-21 21:58:00,
2013-04-21 17:02:00,73.1,53.4,29.97,SW,223,5.0,5.0,50,0.00,,SKC,0.00,VWS V14.01,2013-04-21 22:02:00,
2013-04-21 17:07:00,73.2,52.9,29.97,SSW,211,4.0,7.0,49,0.00,,SKC,0.00,VWS V14.01,2013-04-21 22:07:00,
2013-04-21 17:12:00,73.5,53.7,29.97,SSE,150,6.0,6.0,50,0.00,,SKC,0.00,VWS V14.01,2013-04-21 22:12:00,
2013-04-21 17:18:00,73.9,53.0,29.97,SE,125,9.0,10.0,48,0.00,,SKC,0.00,VWS V14.01,2013-04-21 22:18:00,
2013-04-21 17:23:00,73.5,53.2,29.97,South,188,4.0,6.0,49,0.00,,SKC,0.00,VWS V14.01,2013-04-21 22:23:00,
2013-04-21 17:28:00,73.6,52.7,29.97,SSW,207,5.0,9.0,48,0.00,,SKC,0.00,VWS V14.01,2013-04-21 22:28:00,
2013-04-21 17:33:00,73.9,53.6,29.97,South,177,6.0,9.0,49,0.00,,SKC,0.00,VWS V14.01,2013-04-21 22:33:00,
2013-04-21 17:38:00,73.8,53.5,29.97,South,190,11.0,14.0,49,0.00,,SKC,0.00,VWS V14.01,2013-04-21 22:38:00,
2013-04-21 17:43:00,73.4,53.1,29.97,South,190,5.0,10.0,49,0.00,,SKC,0.00,VWS V14.01,2013-04-21 22:43:00,
2013-04-21 17:48:00,73.7,53.4,29.97,SSE,159,2.0,6.0,49,0.00,,SKC,0.00,VWS V14.01,2013-04-21 22:48:00,
2013-04-21 17:53:00,73.8,52.9,29.97,SSW,207,12.0,14.0,48,0.00,,SKC,0.00,VWS V14.01,2013-04-21 22:53:00,
2013-04-21 17:58:00,73.5,53.2,29.97,South,191,5.0,5.0,49,0.00,,SKC,0.00,VWS V14.01,2013-04-21 22:58:00,
2013-04-21 18:03:00,73.5,52.6,29.97,South,186,3.0,5.0,48,0.00,,SKC,0.00,VWS V14.01,2013-04-21 23:03:00,
2013-04-21 18:08:00,73.4,52.5,29.97,South,171,4.0,7.0,48,0.00,,SKC,0.00,VWS V14.01,2013-04-21 23:08:00,
2013-04-21 18:13:00,73.5,53.2,29.97,SSE,165,7.0,8.0,49,0.00,,SKC,0.00,VWS V14.01,2013-04-21 23:13:00,
2013-04-21 18:18:00,73.5,52.6,29.97,SSW,200,15.0,15.0,48,0.00,,SKC,0.00,VWS V14.01,2013-04-21 23:18:00,
2013-04-21 18:23:00,73.3,52.5,29.97,South,190,10.0,10.0,48,0.00,,SKC,0.00,VWS V14.01,2013-04-21 23:23:00,
2013-04-21 18:28:00,73.4,53.1,29.97,SSE,159,1.0,4.0,49,0.00,,SKC,0.00,VWS V14.01,2013-04-21 23:28:00,
2013-04-21 18:33:00,73.5,53.2,29.97,SE,127,6.0,9.0,49,0.00,,SKC,0.00,VWS V14.01,2013-04-21 23:33:00,
2013-04-21 18:38:00,73.6,53.3,29.97,SE,135,5.0,11.0,49,0.00,,SKC,0.00,VWS V14.01,2013-04-21 23:38:00,
2013-04-21 18:43:00,73.7,53.4,29.97,SSE,155,4.0,7.0,49,0.00,,SKC,0.00,VWS V14.01,2013-04-21 23:43:00,
2013-04-21 18:48:00,73.6,52.7,29.97,South,184,4.0,6.0,48,0.00,,SKC,0.00,VWS V14.01,2013-04-21 23:48:00,
2013-04-21 18:53:00,73.6,53.3,29.97,SSE,160,4.0,7.0,49,0.00,,SKC,0.00,VWS V14.01,2013-04-21 23:53:00,
2013-04-21 18:58:00,73.5,53.2,29.97,SSW,200,3.0,6.0,49,0.00,,SKC,0.00,VWS V14.01,2013-04-21 23:58:00,
2013-04-21 19:03:00,73.5,53.7,29.97,SSE,157,6.0,8.0,50,0.00,,SKC,0.00,VWS V14.01,2013-04-22 00:03:00,
2013-04-21 19:08:00,73.1,53.4,29.97,SSE,155,3.0,7.0,50,0.00,,SKC,0.00,VWS V14.01,2013-04-22 00:08:00,
2013-04-21 19:13:00,72.9,53.2,29.97,East,82,6.0,7.0,50,0.00,,SKC,0.00,VWS V14.01,2013-04-22 00:13:00,
2013-04-21 19:18:00,72.6,52.9,29.97,SE,131,6.0,6.0,50,0.00,,SKC,0.00,VWS V14.01,2013-04-22 00:18:00,
2013-04-21 19:23:00,72.4,53.3,29.97,SE,134,5.0,10.0,51,0.00,,SKC,0.00,VWS V14.01,2013-04-22 00:23:00,
2013-04-21 19:28:00,72.1,53.0,29.97,SE,137,2.0,7.0,51,0.00,,SKC,0.00,VWS V14.01,2013-04-22 00:28:00,
2013-04-21 19:33:00,71.9,53.3,29.97,SSE,153,7.0,7.0,52,0.00,,SKC,0.00,VWS V14.01,2013-04-22 00:33:00,
2013-04-21 19:38:00,71.8,53.2,29.97,SE,142,3.0,6.0,52,0.00,,SKC,0.00,VWS V14.01,2013-04-22 00:38:00,
2013-04-21 19:43:00,71.5,53.0,29.97,SE,141,7.0,7.0,52,0.00,,SKC,0.00,VWS V14.01,2013-04-22 00:43:00,
2013-04-21 19:48:00,71.3,52.8,29.98,SE,134,2.0,4.0,52,0.00,,SKC,0.00,VWS V14.01,2013-04-22 00:48:00,
2013-04-21 19:53:00,71.0,53.0,29.98,SE,137,3.0,7.0,53,0.00,,SKC,0.00,VWS V14.01,2013-04-22 00:53:00,
2013-04-21 19:58:00,70.7,53.3,29.98,SE,140,3.0,6.0,54,0.00,,SKC,0.00,VWS V14.01,2013-04-22 00:58:00,
2013-04-21 20:03:00,70.3,52.9,29.98,SSE,147,2.0,5.0,54,0.00,,SKC,0.00,VWS V14.01,2013-04-22 01:03:00,
2013-04-21 20:08:00,70.0,52.6,29.98,ESE,117,3.0,7.0,54,0.00,,SKC,0.00,VWS V14.01,2013-04-22 01:08:00,
2013-04-21 20:13:00,69.7,52.8,29.98,SE,134,3.0,6.0,55,0.00,,SKC,0.00,VWS V14.01,2013-04-22 01:13:00,
2013-04-21 20:18:00,69.4,52.5,29.98,SE,141,2.0,5.0,55,0.00,,SKC,0.00,VWS V14.01,2013-04-22 01:18:00,
2013-04-21 20:23:00,69.1,52.8,29.99,SE,134,3.0,4.0,56,0.00,,SKC,0.00,VWS V14.01,2013-04-22 01:23:00,
2013-04-21 20:28:00,68.8,52.5,29.99,SE,134,0.0,3.0,56,0.00,,SKC,0.00,VWS V14.01,2013-04-22 01:28:00,
2013-04-21 20:33:00,68.6,52.8,29.99,ESE,122,0.0,3.0,57,0.00,,SKC,0.00,VWS V14.01,2013-04-22 01:33:00,
2013-04-21 20:38:00,68.3,52.5,29.99,SE,132,0.0,4.0,57,0.00,,SKC,0.00,VWS V14.01,2013-04-22 01:38:00,
2013-04-21 20:43:00,68.0,52.2,30.00,SSE,164,4.0,4.0,57,0.00,,SKC,0.00,VWS V14.01,2013-04-22 01:43:00,
2013-04-21 20:48:00,67.7,52.4,30.00,East,98,1.0,1.0,58,0.00,,SKC,0.00,VWS V14.01,2013-04-22 01:48:00,
2013-04-21 20:53:00,67.4,52.1,30.00,East,99,0.0,2.0,58,0.00,,SKC,0.00,VWS V14.01,2013-04-22 01:53:00,
2013-04-21 20:58:00,67.0,52.2,30.00,ESE,106,0.0,3.0,59,0.00,,SKC,0.00,VWS V14.01,2013-04-22 01:58:00,
2013-04-21 21:03:00,66.7,52.4,30.00,ESE,109,0.0,3.0,60,0.00,,SKC,0.00,VWS V14.01,2013-04-22 02:03:00,
2013-04-21 21:08:00,66.5,52.2,30.00,ESE,114,3.0,4.0,60,0.00,,SKC,0.00,VWS V14.01,2013-04-22 02:08:00,
2013-04-21 21:13:00,66.5,52.2,30.00,East,96,1.0,3.0,60,0.00,,SKC,0.00,VWS V14.01,2013-04-22 02:13:00,
2013-04-21 21:18:00,66.5,52.2,30.01,ESE,105,0.0,2.0,60,0.00,,SKC,0.00,VWS V14.01,2013-04-22 02:18:00,
2013-04-21 21:23:00,66.4,52.1,30.01,SE,144,0.0,3.0,60,0.00,,SKC,0.00,VWS V14.01,2013-04-22 02:23:00,
2013-04-21 21:28:00,66.2,51.9,30.01,SE,135,2.0,4.0,60,0.00,,SKC,0.00,VWS V14.01,2013-04-22 02:28:00,
2013-04-21 21:33:00,66.0,52.2,30.01,SE,135,1.0,4.0,61,0.00,,SKC,0.00,VWS V14.01,2013-04-22 02:33:00,
2013-04-21 21:38:00,65.9,52.1,30.02,ESE,102,2.0,3.0,61,0.00,,SKC,0.00,VWS V14.01,2013-04-22 02:38:00,
2013-04-21 21:43:00,65.8,52.0,30.02,ESE,121,1.0,4.0,61,0.00,,SKC,0.00,VWS V14.01,2013-04-22 02:43:00,
2013-04-21 21:48:00,65.8,52.0,30.02,ESE,111,1.0,2.0,61,0.00,,SKC,0.00,VWS V14.01,2013-04-22 02:48:00,
2013-04-21 21:53:00,65.7,51.9,30.02,ESE,112,0.0,2.0,61,0.00,,SKC,0.00,VWS V14.01,2013-04-22 02:53:00,
2013-04-21 21:58:00,65.6,51.8,30.02,ESE,108,3.0,4.0,61,0.00,,SKC,0.00,VWS V14.01,2013-04-22 02:58:00,
2013-04-21 22:03:00,65.8,52.4,30.03,ESE,117,10.0,12.0,62,0.00,,SKC,0.00,VWS V14.01,2013-04-22 03:03:00,
2013-04-21 22:08:00,65.9,52.5,30.03,ESE,108,1.0,6.0,62,0.00,,SKC,0.00,VWS V14.01,2013-04-22 03:08:00,
2013-04-21 22:13:00,65.6,52.2,30.03,East,93,6.0,6.0,62,0.00,,SKC,0.00,VWS V14.01,2013-04-22 03:13:00,
2013-04-21 22:18:00,65.2,52.3,30.03,East,96,2.0,6.0,63,0.00,,SKC,0.00,VWS V14.01,2013-04-22 03:18:00,
2013-04-21 22:23:00,64.8,52.3,30.04,ESE,123,1.0,7.0,64,0.00,,SKC,0.00,VWS V14.01,2013-04-22 03:23:00,
2013-04-21 22:28:00,64.5,52.5,30.04,ESE,111,4.0,9.0,65,0.00,,SKC,0.00,VWS V14.01,2013-04-22 03:28:00,
2013-04-21 22:33:00,64.2,52.2,30.04,SE,134,3.0,4.0,65,0.00,,SKC,0.00,VWS V14.01,2013-04-22 03:33:00,
2013-04-21 22:38:00,63.8,52.2,30.04,ESE,110,2.0,3.0,66,0.00,,SKC,0.00,VWS V14.01,2013-04-22 03:38:00,
2013-04-21 22:43:00,63.5,52.4,30.04,ESE,107,5.0,9.0,67,0.00,,SKC,0.00,VWS V14.01,2013-04-22 03:43:00,
2013-04-21 22:48:00,63.3,52.6,30.04,SE,141,5.0,8.0,68,0.00,,SKC,0.00,VWS V14.01,2013-04-22 03:48:00,
2013-04-21 22:53:00,63.2,52.5,30.04,SSE,155,10.0,11.0,68,0.00,,SKC,0.00,VWS V14.01,2013-04-22 03:53:00,
2013-04-21 22:58:00,63.1,52.8,30.04,ESE,106,6.0,6.0,69,0.00,,SKC,0.00,VWS V14.01,2013-04-22 03:58:00,
2013-04-21 23:01:00,63.1,52.8,30.03,SE,144,6.0,11.0,69,0.00,,SKC,0.00,VWS V14.01,2013-04-22 04:01:00,
2013-04-21 23:06:00,63.0,53.1,30.03,SE,138,11.0,13.0,70,0.00,,SKC,0.00,VWS V14.01,2013-04-22 04:06:00,
2013-04-21 23:11:00,62.8,52.9,30.03,SE,132,13.0,13.0,70,0.00,,SKC,0.00,VWS V14.01,2013-04-22 04:11:00,
2013-04-21 23:16:00,62.6,53.1,30.04,SE,132,6.0,6.0,71,0.00,,SKC,0.00,VWS V14.01,2013-04-22 04:16:00,
2013-04-21 23:21:00,62.3,53.2,30.04,SE,141,6.0,6.0,72,0.00,,SKC,0.00,VWS V14.01,2013-04-22 04:21:00,
2013-04-21 23:26:00,62.2,53.5,30.04,ESE,119,2.0,5.0,73,0.00,,SKC,0.00,VWS V14.01,2013-04-22 04:26:00,
2013-04-21 23:31:00,61.9,53.2,30.04,South,178,10.0,10.0,73,0.00,,SKC,0.00,VWS V14.01,2013-04-22 04:31:00,
2013-04-21 23:36:00,61.7,53.3,30.04,SE,126,2.0,2.0,74,0.00,,SKC,0.00,VWS V14.01,2013-04-22 04:36:00,
2013-04-21 23:41:00,61.4,53.0,30.04,SSE,147,8.0,9.0,74,0.00,,SKC,0.00,VWS V14.01,2013-04-22 04:41:00,
2013-04-21 23:46:00,61.2,53.2,30.04,SE,128,4.0,10.0,75,0.00,,SKC,0.00,VWS V14.01,2013-04-22 04:46:00,
2013-04-21 23:51:00,61.1,53.5,30.04,SSE,149,6.0,6.0,76,0.00,,SKC,0.00,VWS V14.01,2013-04-22 04:51:00,
2013-04-21 23:56:00,60.9,53.3,30.04,ESE,111,4.0,9.0,76,0.00,,SKC,0.00,VWS V14.01,2013-04-22 04:56:00,